createdAt,value
2023-03-27T00:00:09.499Z,8.00
2023-03-27T00:01:09.483Z,7.92
2023-03-27T00:02:09.509Z,7.86
2023-03-27T00:03:09.514Z,7.86
2023-03-27T00:04:09.501Z,7.88
2023-03-27T00:05:09.423Z,7.76
2023-03-27T00:06:09.438Z,7.77
2023-03-27T00:07:09.397Z,7.85
2023-03-27T00:08:09.401Z,7.77
2023-03-27T00:09:09.364Z,7.76
2023-03-27T00:10:09.353Z,7.76
2023-03-27T00:11:09.332Z,7.81
2023-03-27T00:12:09.334Z,7.88
2023-03-27T00:13:09.301Z,7.81
2023-03-27T00:14:09.294Z,7.79
2023-03-27T00:15:09.276Z,7.92
2023-03-27T00:16:09.288Z,7.77
2023-03-27T00:17:09.244Z,7.89
2023-03-27T00:18:09.260Z,7.92
2023-03-27T00:19:09.219Z,7.89
2023-03-27T00:20:09.203Z,7.96
2023-03-27T00:21:09.183Z,7.94
2023-03-27T00:22:09.189Z,7.89
2023-03-27T00:23:09.152Z,7.95
2023-03-27T00:24:09.142Z,7.85
2023-03-27T00:25:09.124Z,7.92
2023-03-27T00:26:09.113Z,8.06
2023-03-27T00:27:09.117Z,8.07
2023-03-27T00:28:09.157Z,8.09
2023-03-27T00:29:09.075Z,8.12
2023-03-27T00:30:09.054Z,8.00
2023-03-27T00:31:09.074Z,7.94
2023-03-27T00:32:09.024Z,7.96
2023-03-27T00:33:09.036Z,7.94
2023-03-27T00:34:08.993Z,8.09
2023-03-27T00:35:08.980Z,8.00
2023-03-27T00:36:08.962Z,8.17
2023-03-27T00:37:08.945Z,8.13
2023-03-27T00:38:08.954Z,8.13
2023-03-27T00:39:08.915Z,8.06
2023-03-27T00:40:08.903Z,8.07
2023-03-27T00:41:09.258Z,8.12
2023-03-27T00:42:08.873Z,8.04
2023-03-27T00:43:08.854Z,8.21
2023-03-27T00:44:08.845Z,8.14
2023-03-27T00:45:08.825Z,8.28
2023-03-27T00:46:08.953Z,8.13
2023-03-27T00:47:08.795Z,8.20
2023-03-27T00:48:08.797Z,8.06
2023-03-27T00:49:08.767Z,8.24
2023-03-27T00:50:08.754Z,8.12
2023-03-27T00:51:08.740Z,8.29
2023-03-27T00:52:08.734Z,8.34
2023-03-27T00:53:08.706Z,8.36
2023-03-27T00:54:08.719Z,8.22
2023-03-27T00:55:08.676Z,8.13
2023-03-27T00:56:08.666Z,8.12
2023-03-27T00:57:08.669Z,8.14
2023-03-27T00:58:08.635Z,8.20
2023-03-27T00:59:08.620Z,8.20
2023-03-27T01:00:09.494Z,8.04
2023-03-27T01:01:08.635Z,8.12
2023-03-27T01:02:08.575Z,8.22
2023-03-27T01:03:08.601Z,8.28
2023-03-27T01:04:08.546Z,8.12
2023-03-27T01:05:08.525Z,8.20
2023-03-27T01:06:08.513Z,8.07
2023-03-27T01:07:08.500Z,8.20
2023-03-27T01:08:08.484Z,8.13
2023-03-27T01:09:08.469Z,8.22
2023-03-27T01:10:08.475Z,8.18
2023-03-27T01:11:08.435Z,8.29
2023-03-27T01:12:08.424Z,8.21
2023-03-27T01:13:08.407Z,8.43
2023-03-27T01:14:08.397Z,8.40
2023-03-27T01:15:08.377Z,8.31
2023-03-27T01:16:08.391Z,8.28
2023-03-27T01:17:08.370Z,8.47
2023-03-27T01:18:08.398Z,8.50
2023-03-27T01:19:08.318Z,8.45
2023-03-27T01:20:08.304Z,8.46
2023-03-27T01:21:08.286Z,8.60
2023-03-27T01:22:08.274Z,8.78
2023-03-27T01:23:08.254Z,8.83
2023-03-27T01:24:08.243Z,8.71
2023-03-27T01:25:08.226Z,8.73
2023-03-27T01:26:08.241Z,8.68
2023-03-27T01:27:08.201Z,8.64
2023-03-27T01:28:08.184Z,8.65
2023-03-27T01:29:08.167Z,8.58
2023-03-27T01:30:08.155Z,8.64
2023-03-27T01:31:08.193Z,8.71
2023-03-27T01:32:08.124Z,8.82
2023-03-27T01:33:08.210Z,8.80
2023-03-27T01:34:08.094Z,8.68
2023-03-27T01:35:08.092Z,8.67
2023-03-27T01:36:08.065Z,8.64
2023-03-27T01:37:08.053Z,8.63
2023-03-27T01:38:08.034Z,8.63
2023-03-27T01:39:08.026Z,8.63
2023-03-27T01:40:08.024Z,8.63
2023-03-27T01:41:07.988Z,8.70
2023-03-27T01:42:07.997Z,8.73
2023-03-27T01:43:07.973Z,8.73
2023-03-27T01:44:07.964Z,8.78
2023-03-27T01:45:07.933Z,8.83
2023-03-27T01:46:07.962Z,8.78
2023-03-27T01:47:07.899Z,8.76
2023-03-27T01:48:07.939Z,8.79
2023-03-27T01:49:07.888Z,8.88
2023-03-27T01:50:07.858Z,8.76
2023-03-27T01:51:07.841Z,8.78
2023-03-27T01:52:07.827Z,8.79
2023-03-27T01:53:07.817Z,8.82
2023-03-27T01:54:07.796Z,8.67
2023-03-27T01:55:07.785Z,8.93
2023-03-27T01:56:07.776Z,8.85
2023-03-27T01:57:07.810Z,8.82
2023-03-27T01:58:07.760Z,8.91
2023-03-27T01:59:07.725Z,8.86
2023-03-27T02:00:18.597Z,8.97
2023-03-27T02:01:07.865Z,8.97
2023-03-27T02:02:07.677Z,8.96
2023-03-27T02:03:07.674Z,8.93
2023-03-27T02:04:07.653Z,8.96
2023-03-27T02:05:07.674Z,8.96
2023-03-27T02:06:07.674Z,8.86
2023-03-27T02:07:07.608Z,8.88
2023-03-27T02:08:07.604Z,8.79
2023-03-27T02:09:07.579Z,8.83
2023-03-27T02:10:07.559Z,8.88
2023-03-27T02:11:07.547Z,8.79
2023-03-27T02:12:07.547Z,8.79
2023-03-27T02:13:07.519Z,8.86
2023-03-27T02:14:07.516Z,8.88
2023-03-27T02:15:22.386Z,8.83
2023-03-27T02:16:07.502Z,8.91
2023-03-27T02:17:07.463Z,8.85
2023-03-27T02:18:07.443Z,8.88
2023-03-27T02:19:07.438Z,8.86
2023-03-27T02:20:07.439Z,8.93
2023-03-27T02:21:07.412Z,8.80
2023-03-27T02:22:07.385Z,8.82
2023-03-27T02:23:07.379Z,8.76
2023-03-27T02:24:07.359Z,8.75
2023-03-27T02:25:07.344Z,8.71
2023-03-27T02:26:07.325Z,8.80
2023-03-27T02:27:07.311Z,8.89
2023-03-27T02:28:07.301Z,8.89
2023-03-27T02:29:07.290Z,8.83
2023-03-27T02:30:07.296Z,8.89
2023-03-27T02:31:32.615Z,8.98
2023-03-27T02:32:07.332Z,9.10
2023-03-27T02:33:07.244Z,8.94
2023-03-27T02:34:07.206Z,9.12
2023-03-27T02:35:07.202Z,9.00
2023-03-27T02:36:08.376Z,8.96
2023-03-27T02:37:07.165Z,8.86
2023-03-27T02:38:07.150Z,9.00
2023-03-27T02:39:07.134Z,8.88
2023-03-27T02:40:07.118Z,8.94
2023-03-27T02:41:07.106Z,8.91
2023-03-27T02:42:07.092Z,9.01
2023-03-27T02:43:07.080Z,9.13
2023-03-27T02:44:07.065Z,9.08
2023-03-27T02:45:07.051Z,9.15
2023-03-27T02:46:07.112Z,9.13
2023-03-27T02:47:07.019Z,9.15
2023-03-27T02:48:07.090Z,9.15
2023-03-27T02:49:06.991Z,9.12
2023-03-27T02:50:06.971Z,9.23
2023-03-27T02:51:06.962Z,9.16
2023-03-27T02:52:06.949Z,9.17
2023-03-27T02:53:06.932Z,9.03
2023-03-27T02:54:06.929Z,9.06
2023-03-27T02:55:06.941Z,9.10
2023-03-27T02:56:06.896Z,9.01
2023-03-27T02:57:06.929Z,9.12
2023-03-27T02:58:06.854Z,9.08
2023-03-27T02:59:06.845Z,9.01
2023-03-27T03:00:06.826Z,8.98
2023-03-27T03:01:06.853Z,9.03
2023-03-27T03:02:06.919Z,9.03
2023-03-27T03:03:06.968Z,8.98
2023-03-27T03:04:06.770Z,9.20
2023-03-27T03:05:06.759Z,9.20
2023-03-27T03:06:06.737Z,9.10
2023-03-27T03:07:06.738Z,9.17
2023-03-27T03:08:06.713Z,9.26
2023-03-27T03:09:06.705Z,9.26
2023-03-27T03:10:07.940Z,9.06
2023-03-27T03:11:06.665Z,9.13
2023-03-27T03:12:06.649Z,9.15
2023-03-27T03:13:06.645Z,9.26
2023-03-27T03:14:06.625Z,9.27
2023-03-27T03:15:06.609Z,9.24
2023-03-27T03:16:06.593Z,9.24
2023-03-27T03:17:06.580Z,9.20
2023-03-27T03:18:06.639Z,9.30
2023-03-27T03:19:06.546Z,9.32
2023-03-27T03:20:06.529Z,9.20
2023-03-27T03:21:06.521Z,9.17
2023-03-27T03:22:06.509Z,9.30
2023-03-27T03:23:06.508Z,9.22
2023-03-27T03:24:06.471Z,9.15
2023-03-27T03:25:06.490Z,9.16
2023-03-27T03:26:06.444Z,9.19
2023-03-27T03:27:06.427Z,9.17
2023-03-27T03:28:06.410Z,9.12
2023-03-27T03:29:06.396Z,9.23
2023-03-27T03:30:06.379Z,9.24
2023-03-27T03:31:06.412Z,9.27
2023-03-27T03:32:06.364Z,9.23
2023-03-27T03:33:06.373Z,9.19
2023-03-27T03:34:06.337Z,9.20
2023-03-27T03:35:06.310Z,9.23
2023-03-27T03:36:06.337Z,9.19
2023-03-27T03:37:06.281Z,9.20
2023-03-27T03:38:06.268Z,9.08
2023-03-27T03:39:06.245Z,9.01
2023-03-27T03:40:06.235Z,9.08
2023-03-27T03:41:06.221Z,9.08
2023-03-27T03:42:06.199Z,9.06
2023-03-27T03:43:06.189Z,8.96
2023-03-27T03:44:06.169Z,8.97
2023-03-27T03:45:06.164Z,9.00
2023-03-27T03:46:06.151Z,9.19
2023-03-27T03:47:06.128Z,9.10
2023-03-27T03:48:06.164Z,9.20
2023-03-27T03:49:06.111Z,9.19
2023-03-27T03:50:06.104Z,9.23
2023-03-27T03:51:06.071Z,9.27
2023-03-27T03:52:06.058Z,9.20
2023-03-27T03:53:06.040Z,9.04
2023-03-27T03:54:06.039Z,9.01
2023-03-27T03:55:06.020Z,9.00
2023-03-27T03:56:05.993Z,8.96
2023-03-27T03:57:05.988Z,8.82
2023-03-27T03:58:05.957Z,8.91
2023-03-27T03:59:05.944Z,8.86
2023-03-27T04:00:05.937Z,8.85
2023-03-27T04:01:05.931Z,8.79
2023-03-27T04:02:05.976Z,8.86
2023-03-27T04:03:05.981Z,8.85
2023-03-27T04:04:05.863Z,8.68
2023-03-27T04:05:08.584Z,8.68
2023-03-27T04:06:05.965Z,8.70
2023-03-27T04:07:05.820Z,8.71
2023-03-27T04:08:05.808Z,8.79
2023-03-27T04:09:05.795Z,8.83
2023-03-27T04:10:05.776Z,8.73
2023-03-27T04:11:05.766Z,8.83
2023-03-27T04:12:05.746Z,8.85
2023-03-27T04:13:05.731Z,8.88
2023-03-27T04:14:05.712Z,8.93
2023-03-27T04:15:05.704Z,9.00
2023-03-27T04:16:05.725Z,9.03
2023-03-27T04:17:05.673Z,8.97
2023-03-27T04:18:05.749Z,8.98
2023-03-27T04:19:05.645Z,9.04
2023-03-27T04:20:05.620Z,9.12
2023-03-27T04:21:05.609Z,9.00
2023-03-27T04:22:05.621Z,8.96
2023-03-27T04:23:05.582Z,8.91
2023-03-27T04:24:05.560Z,8.83
2023-03-27T04:25:05.550Z,8.79
2023-03-27T04:26:05.560Z,8.79
2023-03-27T04:27:05.526Z,8.85
2023-03-27T04:28:05.523Z,8.75
2023-03-27T04:29:05.490Z,8.76
2023-03-27T04:30:05.477Z,8.86
2023-03-27T04:31:05.475Z,8.83
2023-03-27T04:32:05.450Z,8.79
2023-03-27T04:33:06.340Z,8.96
2023-03-27T04:34:05.421Z,8.97
2023-03-27T04:35:05.406Z,8.91
2023-03-27T04:36:07.842Z,9.06
2023-03-27T04:37:05.400Z,9.17
2023-03-27T04:38:05.392Z,9.20
2023-03-27T04:39:05.361Z,9.31
2023-03-27T04:40:05.339Z,9.23
2023-03-27T04:41:05.317Z,9.30
2023-03-27T04:42:05.297Z,9.31
2023-03-27T04:43:05.285Z,9.22
2023-03-27T04:44:05.271Z,9.30
2023-03-27T04:45:05.272Z,9.17
2023-03-27T04:46:05.240Z,9.17
2023-03-27T04:47:06.769Z,9.00
2023-03-27T04:48:05.261Z,8.91
2023-03-27T04:49:05.195Z,8.83
2023-03-27T04:50:05.180Z,8.86
2023-03-27T04:51:05.167Z,8.91
2023-03-27T04:52:05.155Z,8.83
2023-03-27T04:53:05.149Z,8.68
2023-03-27T04:54:05.185Z,8.63
2023-03-27T04:55:05.113Z,8.55
2023-03-27T04:56:05.089Z,8.47
2023-03-27T04:57:05.185Z,8.40
2023-03-27T04:58:05.060Z,8.34
2023-03-27T04:59:05.046Z,8.31
2023-03-27T05:00:05.039Z,8.27
2023-03-27T05:01:05.037Z,8.40
2023-03-27T05:02:05.007Z,8.46
2023-03-27T05:03:05.105Z,8.54
2023-03-27T05:04:05.069Z,8.47
2023-03-27T05:05:04.961Z,8.39
2023-03-27T05:06:04.941Z,8.37
2023-03-27T05:07:04.925Z,8.28
2023-03-27T05:08:04.907Z,8.28
2023-03-27T05:09:04.893Z,8.37
2023-03-27T05:10:04.890Z,8.36
2023-03-27T05:11:04.867Z,8.39
2023-03-27T05:12:04.848Z,8.34
2023-03-27T05:13:04.831Z,8.31
2023-03-27T05:14:04.816Z,8.25
2023-03-27T05:15:04.805Z,8.36
2023-03-27T05:16:04.798Z,8.29
2023-03-27T05:17:04.772Z,8.46
2023-03-27T05:18:04.879Z,8.36
2023-03-27T05:19:04.768Z,8.36
2023-03-27T05:20:04.721Z,8.36
2023-03-27T05:21:04.710Z,8.13
2023-03-27T05:22:04.740Z,7.94
2023-03-27T05:23:04.713Z,7.91
2023-03-27T05:24:04.661Z,7.69
2023-03-27T05:25:04.660Z,7.74
2023-03-27T05:26:04.646Z,7.67
2023-03-27T05:27:04.625Z,7.63
2023-03-27T05:28:04.599Z,7.48
2023-03-27T05:29:04.588Z,7.45
2023-03-27T05:30:04.570Z,7.42
2023-03-27T05:31:04.579Z,7.41
2023-03-27T05:32:04.536Z,7.41
2023-03-27T05:33:04.565Z,7.50
2023-03-27T05:34:04.501Z,7.41
2023-03-27T05:35:04.491Z,7.41
2023-03-27T05:36:04.568Z,7.51
2023-03-27T05:37:04.461Z,7.50
2023-03-27T05:38:04.441Z,7.50
2023-03-27T05:39:04.431Z,7.44
2023-03-27T05:40:04.409Z,7.63
2023-03-27T05:41:04.400Z,7.66
2023-03-27T05:42:04.509Z,7.69
2023-03-27T05:43:04.365Z,7.48
2023-03-27T05:44:04.350Z,7.52
2023-03-27T05:45:04.335Z,7.60
2023-03-27T05:46:04.338Z,7.58
2023-03-27T05:47:04.302Z,7.60
2023-03-27T05:48:04.363Z,7.66
2023-03-27T05:49:04.272Z,7.66
2023-03-27T05:50:04.251Z,7.48
2023-03-27T05:51:04.248Z,7.55
2023-03-27T05:52:04.320Z,7.45
2023-03-27T05:53:04.205Z,7.51
2023-03-27T05:54:04.192Z,7.51
2023-03-27T05:55:04.179Z,7.58
2023-03-27T05:56:04.155Z,7.54
2023-03-27T05:57:04.191Z,7.67
2023-03-27T05:58:04.143Z,7.67
2023-03-27T05:59:04.114Z,7.34
2023-03-27T06:00:04.093Z,7.48
2023-03-27T06:01:04.090Z,7.52
2023-03-27T06:02:04.081Z,7.51
2023-03-27T06:03:04.138Z,7.51
2023-03-27T06:04:04.108Z,7.50
2023-03-27T06:05:04.014Z,7.45
2023-03-27T06:06:04.000Z,7.52
2023-03-27T06:07:03.988Z,7.34
2023-03-27T06:08:03.970Z,7.27
2023-03-27T06:09:03.982Z,7.36
2023-03-27T06:10:03.939Z,7.36
2023-03-27T06:11:03.919Z,7.24
2023-03-27T06:12:03.908Z,7.34
2023-03-27T06:13:03.895Z,7.39
2023-03-27T06:14:03.898Z,7.23
2023-03-27T06:15:03.855Z,7.26
2023-03-27T06:16:03.872Z,7.19
2023-03-27T06:17:03.823Z,7.26
2023-03-27T06:18:03.883Z,7.29
2023-03-27T06:19:03.801Z,7.18
2023-03-27T06:20:03.782Z,7.15
2023-03-27T06:21:03.774Z,7.01
2023-03-27T06:22:03.748Z,7.14
2023-03-27T06:23:03.905Z,7.16
2023-03-27T06:24:03.914Z,7.23
2023-03-27T06:25:03.695Z,7.39
2023-03-27T06:26:03.692Z,7.32
2023-03-27T06:27:03.666Z,7.34
2023-03-27T06:28:03.653Z,7.21
2023-03-27T06:29:08.017Z,7.08
2023-03-27T06:30:03.636Z,6.90
2023-03-27T06:31:03.640Z,6.96
2023-03-27T06:32:03.587Z,7.08
2023-03-27T06:33:03.604Z,7.27
2023-03-27T06:34:03.556Z,7.41
2023-03-27T06:35:03.531Z,7.23
2023-03-27T06:36:03.560Z,7.37
2023-03-27T06:37:03.520Z,7.34
2023-03-27T06:38:03.486Z,7.24
2023-03-27T06:39:03.471Z,7.39
2023-03-27T06:40:03.455Z,7.41
2023-03-27T06:41:03.439Z,7.39
2023-03-27T06:42:03.531Z,7.39
2023-03-27T06:43:03.422Z,7.39
2023-03-27T06:44:03.396Z,7.39
2023-03-27T06:45:03.374Z,7.39
2023-03-27T06:46:03.415Z,7.42
2023-03-27T06:47:03.364Z,7.50
2023-03-27T06:48:17.972Z,7.44
2023-03-27T06:49:03.314Z,7.39
2023-03-27T06:50:03.294Z,7.37
2023-03-27T06:51:03.536Z,7.32
2023-03-27T06:52:03.264Z,7.29
2023-03-27T06:53:05.819Z,7.21
2023-03-27T06:54:03.247Z,7.18
2023-03-27T06:55:03.230Z,7.19
2023-03-27T06:56:03.203Z,7.19
2023-03-27T06:57:03.199Z,7.15
2023-03-27T06:58:03.175Z,7.23
2023-03-27T06:59:03.151Z,7.30
2023-03-27T07:00:03.136Z,7.39
2023-03-27T07:01:03.116Z,7.21
2023-03-27T07:02:03.195Z,7.18
2023-03-27T07:03:03.108Z,6.99
2023-03-27T07:04:03.067Z,7.14
2023-03-27T07:05:05.099Z,7.11
2023-03-27T07:06:03.087Z,6.93
2023-03-27T07:07:03.018Z,6.90
2023-03-27T07:08:14.858Z,6.79
2023-03-27T07:09:03.006Z,6.68
2023-03-27T07:10:02.991Z,6.90
2023-03-27T07:11:11.707Z,6.79
2023-03-27T07:12:02.935Z,6.76
2023-03-27T07:13:02.919Z,6.87
2023-03-27T07:14:02.900Z,6.72
2023-03-27T07:15:02.901Z,6.86
2023-03-27T07:16:02.888Z,6.90
2023-03-27T07:17:02.853Z,6.93
2023-03-27T07:18:02.874Z,7.08
2023-03-27T07:19:02.902Z,7.11
2023-03-27T07:20:02.807Z,7.19
2023-03-27T07:21:02.785Z,7.15
2023-03-27T07:22:02.772Z,7.18
2023-03-27T07:23:02.751Z,7.09
2023-03-27T07:24:02.762Z,7.19
2023-03-27T07:25:02.721Z,7.16
2023-03-27T07:26:02.703Z,7.11
2023-03-27T07:27:02.684Z,7.26
2023-03-27T07:28:05.622Z,7.26
2023-03-27T07:29:02.654Z,7.12
2023-03-27T07:30:02.654Z,7.07
2023-03-27T07:31:03.934Z,7.08
2023-03-27T07:33:02.661Z,7.09
2023-03-27T07:34:02.818Z,7.09
2023-03-27T07:35:02.559Z,7.27
2023-03-27T07:36:02.577Z,7.27
2023-03-27T07:37:02.554Z,7.30
2023-03-27T07:38:02.513Z,7.18
2023-03-27T07:39:02.494Z,7.15
2023-03-27T07:40:02.486Z,7.15
2023-03-27T07:41:02.468Z,7.19
2023-03-27T07:42:02.459Z,6.94
2023-03-27T07:43:02.430Z,6.89
2023-03-27T07:44:02.417Z,6.93
2023-03-27T07:45:04.187Z,7.04
2023-03-27T07:46:02.408Z,7.12
2023-03-27T07:47:02.380Z,7.27
2023-03-27T07:48:02.401Z,7.47
2023-03-27T07:49:02.335Z,7.45
2023-03-27T07:50:02.344Z,7.45
2023-03-27T07:52:02.293Z,7.55
2023-03-27T07:53:02.271Z,7.76
2023-03-27T07:54:02.258Z,7.95
2023-03-27T07:55:02.237Z,7.91
2023-03-27T07:56:02.233Z,7.58
2023-03-27T07:57:02.243Z,7.54
2023-03-27T07:58:03.197Z,7.67
2023-03-27T07:59:02.181Z,7.92
2023-03-27T08:00:02.173Z,8.06
2023-03-27T08:01:02.686Z,8.14
2023-03-27T08:02:02.131Z,8.06
2023-03-27T08:03:02.202Z,8.29
2023-03-27T08:04:02.195Z,8.25
2023-03-27T08:05:02.411Z,8.18
2023-03-27T08:06:02.093Z,8.31
2023-03-27T08:07:02.050Z,8.20
2023-03-27T08:08:02.041Z,8.24
2023-03-27T08:09:02.988Z,8.06
2023-03-27T08:10:02.007Z,8.09
2023-03-27T08:11:01.986Z,8.22
2023-03-27T08:12:01.973Z,7.96
2023-03-27T08:13:01.953Z,7.92
2023-03-27T08:14:01.942Z,8.07
2023-03-27T08:15:01.922Z,8.31
2023-03-27T08:16:01.912Z,8.45
2023-03-27T08:17:14.539Z,8.36
2023-03-27T08:18:01.931Z,8.00
2023-03-27T08:19:01.858Z,8.00
2023-03-27T08:20:01.848Z,8.00
2023-03-27T08:21:01.882Z,7.77
2023-03-27T08:22:01.893Z,7.67
2023-03-27T08:23:01.797Z,7.62
2023-03-27T08:24:01.786Z,7.67
2023-03-27T08:25:01.800Z,7.74
2023-03-27T08:26:01.749Z,7.51
2023-03-27T08:27:01.736Z,7.45
2023-03-27T08:28:01.723Z,7.37
2023-03-27T08:29:01.721Z,7.41
2023-03-27T08:30:01.702Z,7.44
2023-03-27T08:31:02.384Z,7.57
2023-03-27T08:32:01.658Z,7.67
2023-03-27T08:33:01.747Z,7.79
2023-03-27T08:34:01.639Z,7.81
2023-03-27T08:35:01.611Z,7.99
2023-03-27T08:36:01.617Z,7.91
2023-03-27T08:37:01.598Z,7.94
2023-03-27T08:38:01.584Z,7.94
2023-03-27T08:39:01.543Z,7.91
2023-03-27T08:40:01.534Z,7.77
2023-03-27T08:41:01.514Z,7.70
2023-03-27T08:42:01.498Z,7.86
2023-03-27T08:43:01.487Z,7.74
2023-03-27T08:44:01.469Z,7.51
2023-03-27T08:45:01.459Z,7.39
2023-03-27T08:46:01.445Z,7.55
2023-03-27T08:47:01.419Z,7.85
2023-03-27T08:48:01.485Z,8.32
2023-03-27T08:49:01.392Z,8.39
2023-03-27T08:50:01.376Z,8.39
2023-03-27T08:51:01.364Z,8.09
2023-03-27T08:52:01.348Z,7.96
2023-03-27T08:53:01.338Z,8.09
2023-03-27T08:54:01.432Z,8.09
2023-03-27T08:55:01.298Z,8.12
2023-03-27T08:56:01.299Z,8.27
2023-03-27T08:57:01.282Z,8.20
2023-03-27T08:58:01.260Z,8.18
2023-03-27T08:59:01.239Z,8.06
2023-03-27T09:00:01.245Z,8.07
2023-03-27T09:01:01.203Z,8.12
2023-03-27T09:02:01.233Z,8.17
2023-03-27T09:03:01.229Z,8.00
2023-03-27T09:04:01.239Z,8.13
2023-03-27T09:05:01.141Z,8.20
2023-03-27T09:06:01.126Z,8.40
2023-03-27T09:07:01.105Z,8.10
2023-03-27T09:08:01.099Z,7.84
2023-03-27T09:09:01.076Z,7.79
2023-03-27T09:10:01.090Z,7.69
2023-03-27T09:11:01.047Z,7.89
2023-03-27T09:12:01.043Z,7.95
2023-03-27T09:13:01.033Z,7.82
2023-03-27T09:14:01.005Z,7.63
2023-03-27T09:15:00.982Z,7.62
2023-03-27T09:16:01.013Z,7.91
2023-03-27T09:17:00.950Z,7.89
2023-03-27T09:18:00.999Z,8.10
2023-03-27T09:19:00.917Z,7.63
2023-03-27T09:20:00.905Z,7.42
2023-03-27T09:21:00.885Z,7.32
2023-03-27T09:22:00.874Z,7.27
2023-03-27T09:23:00.855Z,7.44
2023-03-27T09:24:00.848Z,7.34
2023-03-27T09:25:00.858Z,7.30
2023-03-27T09:26:00.833Z,7.44
2023-03-27T09:27:07.077Z,7.54
2023-03-27T09:28:00.779Z,7.76
2023-03-27T09:29:00.980Z,7.77
2023-03-27T09:30:05.563Z,8.12
2023-03-27T09:31:00.778Z,8.27
2023-03-27T09:32:00.721Z,8.32
2023-03-27T09:33:00.791Z,8.39
2023-03-27T09:34:00.688Z,8.29
2023-03-27T09:35:00.668Z,8.37
2023-03-27T09:36:01.011Z,8.42
2023-03-27T09:37:00.633Z,8.60
2023-03-27T09:38:00.621Z,8.52
2023-03-27T09:39:00.603Z,8.49
2023-03-27T09:40:00.598Z,8.47
2023-03-27T09:41:00.579Z,8.55
2023-03-27T09:42:00.581Z,8.70
2023-03-27T09:43:00.545Z,8.85
2023-03-27T09:44:00.537Z,9.00
2023-03-27T09:45:00.515Z,9.15
2023-03-27T09:46:00.499Z,8.97
2023-03-27T09:47:00.496Z,9.10
2023-03-27T09:48:00.488Z,9.20
2023-03-27T09:49:00.446Z,9.15
2023-03-27T09:50:00.439Z,9.24
2023-03-27T09:51:00.421Z,9.16
2023-03-27T09:52:00.417Z,9.19
2023-03-27T09:53:00.392Z,9.26
2023-03-27T09:54:00.389Z,8.97
2023-03-27T09:55:00.361Z,8.80
2023-03-27T09:56:02.427Z,8.78
2023-03-27T09:57:00.388Z,8.85
2023-03-27T09:58:00.339Z,8.88
2023-03-27T09:59:00.302Z,8.75
2023-03-27T10:00:00.304Z,8.73
2023-03-27T10:01:00.311Z,8.79
2023-03-27T10:02:00.260Z,8.96
2023-03-27T10:03:00.333Z,9.26
2023-03-27T10:04:00.290Z,9.20
2023-03-27T10:05:00.308Z,9.22
2023-03-27T10:06:00.199Z,9.32
2023-03-27T10:07:00.179Z,9.52
2023-03-27T10:08:00.170Z,9.40
2023-03-27T10:09:00.150Z,9.08
2023-03-27T10:10:00.148Z,8.86
2023-03-27T10:11:00.121Z,9.00
2023-03-27T10:12:00.128Z,9.03
2023-03-27T10:13:00.125Z,9.10
2023-03-27T10:14:00.106Z,9.04
2023-03-27T10:15:01.690Z,9.01
2023-03-27T10:16:00.053Z,8.78
2023-03-27T10:17:00.094Z,8.68
2023-03-27T10:18:00.090Z,8.64
2023-03-27T10:19:00.008Z,8.49
2023-03-27T10:19:59.992Z,8.75
2023-03-27T10:20:59.976Z,8.89
2023-03-27T10:21:59.973Z,8.65
2023-03-27T10:23:00.160Z,8.65
2023-03-27T10:23:59.931Z,8.64
2023-03-27T10:24:59.917Z,8.49
2023-03-27T10:25:59.906Z,8.34
2023-03-27T10:26:59.894Z,8.09
2023-03-27T10:27:59.868Z,8.00
2023-03-27T10:28:59.881Z,8.13
2023-03-27T10:29:59.865Z,8.37
2023-03-27T10:30:59.854Z,8.50
2023-03-27T10:31:59.883Z,8.94
2023-03-27T10:32:59.867Z,8.88
2023-03-27T10:33:59.813Z,9.08
2023-03-27T10:34:59.772Z,9.27
2023-03-27T10:35:59.817Z,9.35
2023-03-27T10:36:59.762Z,9.59
2023-03-27T10:37:59.720Z,9.65
2023-03-27T10:38:59.709Z,9.75
2023-03-27T10:39:59.699Z,9.81
2023-03-27T10:40:59.673Z,9.60
2023-03-27T10:41:59.660Z,9.70
2023-03-27T10:42:59.676Z,9.78
2023-03-27T10:43:59.629Z,9.59
2023-03-27T10:44:59.672Z,9.35
2023-03-27T10:45:59.658Z,9.27
2023-03-27T10:46:59.622Z,9.31
2023-03-27T10:47:59.642Z,9.49
2023-03-27T10:48:59.562Z,9.73
2023-03-27T10:49:59.540Z,9.93
2023-03-27T10:50:59.544Z,10.28
2023-03-27T10:51:59.530Z,10.26
2023-03-27T10:52:59.548Z,10.47
2023-03-27T10:53:59.589Z,10.52
2023-03-27T10:54:59.471Z,10.69
2023-03-27T10:55:59.460Z,10.60
2023-03-27T10:56:59.585Z,10.54
2023-03-27T10:57:59.427Z,10.69
2023-03-27T10:58:59.414Z,10.90
2023-03-27T10:59:59.411Z,11.01
2023-03-27T11:00:59.720Z,11.01
2023-03-27T11:01:59.437Z,10.95
2023-03-27T11:02:59.438Z,11.11
2023-03-27T11:03:59.404Z,10.88
2023-03-27T11:04:59.329Z,10.54
2023-03-27T11:05:59.314Z,10.55
2023-03-27T11:06:59.298Z,10.24
2023-03-27T11:07:59.288Z,10.14
2023-03-27T11:08:59.271Z,10.07
2023-03-27T11:09:59.344Z,9.49
2023-03-27T11:10:59.311Z,8.98
2023-03-27T11:11:59.234Z,9.00
2023-03-27T11:12:59.230Z,8.96
2023-03-27T11:13:59.194Z,9.15
2023-03-27T11:14:59.182Z,9.24
2023-03-27T11:15:59.165Z,9.35
2023-03-27T11:16:59.239Z,9.55
2023-03-27T11:17:59.185Z,9.68
2023-03-27T11:18:59.127Z,9.65
2023-03-27T11:19:59.112Z,9.74
2023-03-27T11:20:59.186Z,9.56
2023-03-27T11:21:59.078Z,9.40
2023-03-27T11:22:59.080Z,9.38
2023-03-27T11:23:59.086Z,9.30
2023-03-27T11:24:59.039Z,9.40
2023-03-27T11:25:59.022Z,9.74
2023-03-27T11:26:59.012Z,10.07
2023-03-27T11:27:58.996Z,10.29
2023-03-27T11:29:58.964Z,10.38
2023-03-27T11:30:59.206Z,10.52
2023-03-27T11:31:58.975Z,10.81
2023-03-27T11:32:58.996Z,10.81
2023-03-27T11:33:58.931Z,10.87
2023-03-27T11:34:58.914Z,11.02
2023-03-27T11:35:58.966Z,11.05
2023-03-27T11:36:58.868Z,10.72
2023-03-27T11:37:58.856Z,10.66
2023-03-27T11:38:58.840Z,10.90
2023-03-27T11:39:58.827Z,11.03
2023-03-27T11:40:59.057Z,10.69
2023-03-27T11:41:58.807Z,10.80
2023-03-27T11:42:58.803Z,10.62
2023-03-27T11:43:58.784Z,10.78
2023-03-27T11:44:58.762Z,10.83
2023-03-27T11:45:58.775Z,10.68
2023-03-27T11:46:58.732Z,10.60
2023-03-27T11:47:58.735Z,10.39
2023-03-27T11:48:58.715Z,10.17
2023-03-27T11:49:58.727Z,9.96
2023-03-27T11:50:59.157Z,10.14
2023-03-27T11:51:58.664Z,10.07
2023-03-27T11:52:58.649Z,10.01
2023-03-27T11:53:58.645Z,10.06
2023-03-27T11:54:58.644Z,9.96
2023-03-27T11:55:58.609Z,9.95
2023-03-27T11:56:58.639Z,10.06
2023-03-27T11:57:58.661Z,9.85
2023-03-27T11:58:58.563Z,9.83
2023-03-27T11:59:58.559Z,9.80
2023-03-27T12:00:58.751Z,10.02
2023-03-27T12:01:58.588Z,10.26
2023-03-27T12:02:58.595Z,10.28
2023-03-27T12:03:58.621Z,10.39
2023-03-27T12:04:58.479Z,10.43
2023-03-27T12:05:58.494Z,10.72
2023-03-27T12:07:04.322Z,10.69
2023-03-27T12:07:58.442Z,10.66
2023-03-27T12:08:58.428Z,10.87
2023-03-27T12:09:58.410Z,10.49
2023-03-27T12:10:58.572Z,10.55
2023-03-27T12:11:58.385Z,10.36
2023-03-27T12:12:58.368Z,10.04
2023-03-27T12:14:02.106Z,10.16
2023-03-27T12:14:58.345Z,10.28
2023-03-27T12:15:58.338Z,10.49
2023-03-27T12:16:58.370Z,10.51
2023-03-27T12:17:58.340Z,10.55
2023-03-27T12:19:03.797Z,10.87
2023-03-27T12:19:58.293Z,10.88
2023-03-27T12:20:58.261Z,10.78
2023-03-27T12:21:58.268Z,10.99
2023-03-27T12:22:58.231Z,11.23
2023-03-27T12:23:58.216Z,10.76
2023-03-27T12:24:59.919Z,10.54
2023-03-27T12:25:58.191Z,9.98
2023-03-27T12:26:58.173Z,9.80
2023-03-27T12:27:58.163Z,9.80
2023-03-27T12:28:58.146Z,10.07
2023-03-27T12:29:58.133Z,10.24
2023-03-27T12:30:58.302Z,10.13
2023-03-27T12:31:58.141Z,10.18
2023-03-27T12:32:59.639Z,10.25
2023-03-27T12:33:58.078Z,10.11
2023-03-27T12:34:58.091Z,10.36
2023-03-27T12:35:58.065Z,10.46
2023-03-27T12:36:58.037Z,10.90
2023-03-27T12:37:58.044Z,10.63
2023-03-27T12:38:58.010Z,10.73
2023-03-27T12:39:58.006Z,10.32
2023-03-27T12:40:58.122Z,9.58
2023-03-27T12:41:57.966Z,9.24
2023-03-27T12:42:57.949Z,9.20
2023-03-27T12:43:57.942Z,9.00
2023-03-27T12:45:00.028Z,9.03
2023-03-27T12:45:57.932Z,9.20
2023-03-27T12:46:57.956Z,9.32
2023-03-27T12:47:57.935Z,9.35
2023-03-27T12:48:57.882Z,9.31
2023-03-27T12:49:57.856Z,9.52
2023-03-27T12:50:58.093Z,9.42
2023-03-27T12:51:57.869Z,9.49
2023-03-27T12:52:57.811Z,9.70
2023-03-27T12:53:57.834Z,9.93
2023-03-27T12:54:57.780Z,10.10
2023-03-27T12:55:57.965Z,10.38
2023-03-27T12:56:57.850Z,10.84
2023-03-27T12:57:57.915Z,11.01
2023-03-27T12:58:57.758Z,11.41
2023-03-27T12:59:57.726Z,11.69
2023-03-27T13:00:57.902Z,11.88
2023-03-27T13:01:57.725Z,12.03
2023-03-27T13:02:57.780Z,12.31
2023-03-27T13:03:57.744Z,12.55
2023-03-27T13:04:57.640Z,12.59
2023-03-27T13:05:57.639Z,12.59
2023-03-27T13:06:57.627Z,12.69
2023-03-27T13:07:57.609Z,12.61
2023-03-27T13:08:57.590Z,12.48
2023-03-27T13:09:57.599Z,12.40
2023-03-27T13:10:57.779Z,11.78
2023-03-27T13:11:57.556Z,11.17
2023-03-27T13:12:57.545Z,9.98
2023-03-27T13:13:57.530Z,9.68
2023-03-27T13:14:57.509Z,9.86
2023-03-27T13:15:57.777Z,9.68
2023-03-27T13:16:57.489Z,9.63
2023-03-27T13:17:57.494Z,9.44